• Join FlightAware (Why Join?)
  • Login
  • US Flag 
06:24PM EDT


 

Airport Tracker/Info


-or-


 

Live Flight TrackerFlight Track Log ✈ ECJ21 ✈ 16-Jul-2013 ✈ KHPN - TXKF / BDA

Flight Track Log - Related Links

Times and Time Zones

All times are in EDT time to prevent confusion due to time zone crossing. See the ECJ21 flight status page for this flight to view local times or setup timezone preferences in your user account.

Time Position Orientation Groundspeed Altitude Reporting Facility
EDT Latitude Longitude Course Direction KTS MPH feet Rate Location/Type
09:26AM 41.0833 -73.7333 255° West 186 214 2,000  Level New York TRACON
09:27AM 41.0667 -73.8167 255° West 234 269 4,200 2,100 Climbing New York TRACON
09:28AM 41.0167 -73.8500 207° Southwest 271 312 6,200 1,740 Climbing New York TRACON
09:29AM 40.9333 -73.8500 180° South 307 353 7,900 900 Climbing New York TRACON
09:30AM 40.8333 -73.8000 159° South 326 375 8,100 840 Climbing New York TRACON
09:32AM 40.7050 -73.6864 146° Southeast 336 387 10,500 1,740 Climbing New York Center
09:33AM 40.6300 -73.5903 136° Southeast 347 399 13,200 2,460 Climbing New York Center
09:34AM 40.5631 -73.5167 140° Southeast 353 406 15,400 1,380 Climbing New York Center
09:35AM 40.4839 -73.4233 138° Southeast 367 422 16,100 1,260 Climbing New York Center
09:36AM 40.3925 -73.3189 139° Southeast 393 452 18,000 1,860 Climbing New York Center
09:37AM 40.3133 -73.2236 137° Southeast 398 458 19,900 1,980 Climbing New York Center
09:38AM 40.2508 -73.1153 127° Southeast 390 449 22,100 1,500 Climbing New York Center
09:39AM 40.1844 -73.0042 128° Southeast 383 441 23,000 420 Climbing New York Center
09:40AM 40.1178 -72.8908 128° Southeast 404 465 23,000 420 Level New York Center
09:41AM 40.0408 -72.7664 129° Southeast 429 494 23,900 1,260 Climbing New York Center
09:42AM 39.9697 -72.6425 127° Southeast 434 499 25,500 1,560 Climbing New York Center
09:43AM 39.8989 -72.5242 128° Southeast 423 487 27,100 1,500 Climbing New York Center
09:44AM 39.8297 -72.4064 127° Southeast 423 487 28,500 900 Climbing New York Center
09:45AM 39.7603 -72.2886 127° Southeast 423 487 29,000 240 Climbing New York Center
09:46AM 39.6828 -72.1656 129° Southeast 430 495 29,000  Level New York Center
09:47AM 39.5817 -72.0664 143° Southeast 441 507 29,000  Level New York Center
09:48AM 39.4786 -71.9731 145° Southeast 453 521 29,000  Level New York Center
09:49AM 39.3775 -71.8744 143° Southeast 458 527 29,000  Level New York Center
09:50AM 39.2742 -71.7736 143° Southeast 463 533 29,000  Level New York Center
09:51AM 39.1728 -71.6783 144° Southeast 463 533 29,000  Level New York Center
09:52AM 39.0714 -71.5861 145° Southeast 463 533 29,000  Level New York Center
09:53AM 38.9697 -71.4836 142° Southeast 463 533 29,100 360 Climbing New York Center
09:54AM 38.8661 -71.3864 144° Southeast 463 533 29,800 660 Climbing New York Center
09:55AM 38.7667 -71.2869 142° Southeast 458 527 30,500 540 Climbing New York Center
09:56AM 38.6647 -71.1958 145° Southeast 453 521 31,000 240 Climbing New York Center
09:57AM 38.5589 -71.1047 146° Southeast 458 527 31,000  Level New York Center
09:58AM 38.4569 -71.0061 143° Southeast 458 527 31,000  Level New York Center
09:59AM 38.3569 -70.9025 141° Southeast 463 533 31,000  Level New York Center
10:00AM 38.2381 -70.8097 148° Southeast 463 533 31,000  Level New York Center
10:01AM 38.1339 -70.7169 145° Southeast 463 533 31,000  Level New York Center
10:02AM 38.0297 -70.6247 145° Southeast 463 533 31,000  Level New York Center
10:04AM 37.8569 -70.4894 154° Southeast  Level FlightAware Approximate
10:11AM 37.1768 -70.0599 154° Southeast  Level FlightAware Approximate
10:12AM 37.0779 -70.0004 154° Southeast  Level FlightAware Approximate
10:13AM 36.9790 -69.9410 154° Southeast  Level FlightAware Approximate
10:14AM 36.8800 -69.8818 154° Southeast  Level FlightAware Approximate
10:15AM 36.7811 -69.8227 154° Southeast  Level FlightAware Approximate
10:16AM 36.6820 -69.7637 154° Southeast  Level FlightAware Approximate
10:17AM 36.5830 -69.7050 155° Southeast  Level FlightAware Approximate
10:18AM 36.4839 -69.6463 155° Southeast  Level FlightAware Approximate
10:19AM 36.3848 -69.5879 155° Southeast  Level FlightAware Approximate
10:20AM 36.2856 -69.5295 155° Southeast  Level FlightAware Approximate
10:20AM 36.1667 -69.4500 143° Southeast 456 525 31,000  Level New York Oceanic (ODAPS)
10:21AM 36.1865 -69.4714 155° Southeast  Level FlightAware Approximate
10:22AM 36.0951 -69.3975 142° Southeast  Level FlightAware Approximate
10:23AM 36.0082 -69.3147 142° Southeast  Level FlightAware Approximate
10:24AM 35.9212 -69.2321 142° Southeast  Level FlightAware Approximate
10:25AM 35.8342 -69.1497 142° Southeast  Level FlightAware Approximate
10:26AM 35.4583 -68.7860 143° Southeast 456 525 31,000  Level FlightAware Transoceanic
10:27AM 35.3568 -68.6921 143° Southeast 456 525 31,000  Level FlightAware Transoceanic
10:28AM 35.2552 -68.5984 143° Southeast 456 525 31,000  Level FlightAware Transoceanic
10:29AM 35.1536 -68.5050 143° Southeast 456 525 31,000  Level FlightAware Transoceanic
10:30AM 35.0519 -68.4118 143° Southeast 456 525 31,000  Level FlightAware Transoceanic
10:31AM 34.9501 -68.3188 143° Southeast 456 525 31,000  Level FlightAware Transoceanic
10:32AM 34.8482 -68.2261 143° Southeast 456 525 31,000  Level FlightAware Transoceanic
10:33AM 34.7463 -68.1336 143° Southeast 456 525 31,000  Level FlightAware Transoceanic
10:34AM 34.6443 -68.0413 143° Southeast 456 525 31,000  Level FlightAware Transoceanic
10:35AM 34.5423 -67.9493 143° Southeast 456 525 31,000  Level FlightAware Transoceanic
10:36AM 34.4401 -67.8575 143° Southeast 456 525 31,000  Level FlightAware Transoceanic
10:37AM 34.3379 -67.7659 144° Southeast 456 525 31,000  Level FlightAware Transoceanic
10:38AM 34.2357 -67.6745 144° Southeast 456 525 31,000  Level FlightAware Transoceanic
10:39AM 34.1333 -67.5833 125° Southeast 456 525 31,000  Level FlightAware Transoceanic
10:39AM 34.1333 -67.5833 125° Southeast 449 517 31,000  Level New York Oceanic (ODAPS)
10:40AM 34.0611 -67.4601 125° Southeast 456 525 31,000  Level FlightAware Transoceanic
10:41AM 33.9887 -67.3371 125° Southeast 456 525 31,000  Level FlightAware Transoceanic
10:42AM 33.9162 -67.2144 125° Southeast 456 525 31,000  Level FlightAware Transoceanic
10:43AM 33.8436 -67.0918 126° Southeast 456 525 31,000  Level FlightAware Transoceanic
10:44AM 33.7709 -66.9694 126° Southeast 456 525 31,000  Level FlightAware Transoceanic
10:45AM 33.6980 -66.8473 126° Southeast 456 525 31,000  Level FlightAware Transoceanic
10:46AM 33.6251 -66.7253 126° Southeast 449 517 31,000  Level FlightAware Transoceanic
10:47AM 33.5520 -66.6036 126° Southeast 449 517 31,000  Level FlightAware Transoceanic
10:48AM 33.4788 -66.4820 126° Southeast 449 517 31,000  Level FlightAware Transoceanic
10:49AM 33.4054 -66.3607 126° Southeast 449 517 31,000  Level FlightAware Transoceanic
10:50AM 33.3320 -66.2396 126° Southeast 449 517 31,000  Level FlightAware Transoceanic
10:51AM 33.2584 -66.1187 126° Southeast 449 517 31,000 -3,180 Level FlightAware Transoceanic
10:51AM 34.1333 -67.5833 125° Southeast 451 519 27,000  Descending New York Oceanic (ODAPS)
10:52AM 33.1847 -65.9980 126° Southeast 449 517 31,000 2,280 Climbing FlightAware Transoceanic
10:53AM 33.1109 -65.8774 126° Southeast 449 517 31,000  Level FlightAware Transoceanic
10:54AM 33.0197 -65.7287 126° Southeast 451 519 31,000  Level FlightAware Transoceanic
10:55AM 32.9445 -65.6067 126° Southeast 451 519 31,000 -7,260 Level FlightAware Transoceanic
10:55AM 34.1333 -67.5833 125° Southeast 451 519 20,000 -16,380 Descending New York Oceanic (ODAPS)
10:55AM 34.1333 -67.5833 125° Southeast 451 519 19,000 22,740 Descending New York Oceanic (ODAPS)
10:56AM 32.8692 -65.4849 126° Southeast 451 519 31,000 6,300 Climbing FlightAware Transoceanic
10:57AM 32.7937 -65.3634 126° Southeast 451 519 27,000 -2,040 Descending FlightAware Transoceanic
10:58AM 32.7182 -65.2421 127° Southeast 451 519 27,000 -9,180 Level FlightAware Transoceanic
10:58AM 34.1333 -67.5833 125° Southeast 451 519 14,000  Descending New York Oceanic (ODAPS)
10:59AM 32.6425 -65.1209 127° Southeast 451 519 27,000 8,160 Climbing FlightAware Transoceanic
11:00AM 32.5667 -65.0000 106° East 451 519 27,000 -12,480 Level FlightAware Transoceanic
11:00AM 34.1333 -67.5833 125° Southeast 451 519 10,000  Descending New York Oceanic (ODAPS)
11:01AM 32.5336 -64.8624 106° East 451 519 27,000 5,460 Climbing FlightAware Transoceanic
11:02AM 32.5136 -64.7798 106° East 451 519 19,000 -4,020 Descending FlightAware Transoceanic
11:03AM 32.4869 -64.6698 106° East 451 519 19,000 -2,520 Level FlightAware Transoceanic
11:04AM 32.4780 -64.6331 106° East 451 519 14,000 -12,360 Descending FlightAware Transoceanic
11:04AM 34.1333 -67.5833 125° Southeast 451 519 4,000  Descending New York Oceanic (ODAPS)
11:05AM 32.4557 -64.5415 106° East 451 519 14,000 -1,260 Climbing FlightAware Transoceanic
11:05AM 34.1333 -67.5833 125° Southeast 451 519 2,500 -6,060 Descending New York Oceanic (ODAPS)
11:06AM 33.7858 -66.9643 127° Southeast  Level FlightAware Approximate
11:06AM 34.1333 -67.5833 125° Southeast 451 519 2,000  Level New York Oceanic (ODAPS)
11:07AM 33.7191 -66.8581 127° Southeast  Level FlightAware Approximate
11:08AM 33.6522 -66.7521 127° Southeast  Level FlightAware Approximate
11:09AM 33.5852 -66.6462 127° Southeast  Level FlightAware Approximate
11:10AM 33.7758 -66.9484 127° Southeast  Level FlightAware Approximate
11:11AM 33.7914 -66.9732 127° Southeast  Level FlightAware Approximate
11:12AM 33.7246 -66.8670 127° Southeast  Level FlightAware Approximate
11:13AM 33.7602 -66.9236 127° Southeast  Level FlightAware Approximate
11:14AM 33.6934 -66.8175 127° Southeast  Level FlightAware Approximate